Time;durP1;ratioP1;P1;durP2;ratioP2;P2;SDS_P1;SDS_P2;PMS_P1;PMS_P2;Temp;Humidity;BMP_temperature;BMP_pressure;BME280_temperature;BME280_humidity;BME280_pressure;Samples;Min_cycle;Max_cycle;Signal;HPM_P1;HPM_P2
2023/08/11 04:00:55;;;;;;;1.97;1.87;;;12.90;97.30;;;;;;6010328;23;20372;31
2023/08/11 04:03:46;;;;;;;1.60;1.50;;;12.90;97.30;;;;;;4890314;29;20495;-89
2023/08/11 04:06:18;;;;;;;1.30;1.20;;;12.80;97.30;;;;;;4880899;29;20941;-89
2023/08/11 04:09:27;;;;;;;4.50;3.10;;;12.80;97.30;;;;;;4876469;29;20761;-88
2023/08/11 04:11:56;;;;;;;1.37;1.27;;;12.80;97.30;;;;;;4839005;29;20470;-88
2023/08/11 04:14:21;;;;;;;2.73;2.53;;;12.70;97.30;;;;;;4940433;23;20494;-87
2023/08/11 04:16:47;;;;;;;1.37;1.27;;;12.70;97.30;;;;;;4947131;28;20426;-86
2023/08/11 04:19:13;;;;;;;1.30;1.20;;;12.70;97.30;;;;;;4948523;28;20180;-88
2023/08/11 04:21:40;;;;;;;2.17;1.60;;;12.70;97.30;;;;;;4948038;29;20463;-88
2023/08/11 04:24:06;;;;;;;4.13;2.23;;;12.70;97.30;;;;;;4948519;29;20452;-88
2023/08/11 04:26:35;;;;;;;1.87;1.77;;;12.70;97.30;;;;;;4932192;29;20416;-88
2023/08/11 04:29:01;;;;;;;1.87;1.77;;;12.70;97.30;;;;;;4934948;29;20478;-87
2023/08/11 04:31:27;;;;;;;1.10;1.10;;;12.80;97.30;;;;;;4932365;29;20420;-87
2023/08/11 04:33:53;;;;;;;1.87;1.73;;;12.80;97.30;;;;;;4932199;29;21060;-88
2023/08/11 04:36:19;;;;;;;1.33;1.23;;;12.80;97.30;;;;;;4932061;29;20564;-86
2023/08/11 04:38:45;;;;;;;1.60;1.50;;;12.90;97.30;;;;;;4933606;29;20184;-88
2023/08/11 04:41:10;;;;;;;1.40;1.30;;;12.90;97.30;;;;;;4931984;29;20589;-87
2023/08/11 04:43:36;;;;;;;1.43;1.33;;;12.90;97.30;;;;;;4939968;29;20203;-87
2023/08/11 04:46:03;;;;;;;2.00;1.90;;;12.90;97.30;;;;;;4932014;29;20388;-87
2023/08/11 04:48:29;;;;;;;1.43;1.33;;;12.90;97.30;;;;;;4933808;29;20194;-87
2023/08/11 04:50:56;;;;;;;5.27;1.63;;;12.90;97.30;;;;;;4933890;29;20514;-87
2023/08/11 04:53:22;;;;;;;2.20;1.93;;;12.90;97.30;;;;;;4948966;28;20503;-87
2023/08/11 04:55:48;;;;;;;1.30;1.20;;;12.90;97.30;;;;;;4933726;29;20821;-86
2023/08/11 04:58:14;;;;;;;1.87;1.20;;;12.90;97.30;;;;;;4932652;29;20183;-86
2023/08/11 05:00:40;;;;;;;1.63;1.50;;;13.00;97.30;;;;;;4937961;28;20467;-86
2023/08/11 05:03:08;;;;;;;2.90;1.40;;;13.00;97.30;;;;;;4933860;29;20239;-86
2023/08/11 05:05:34;;;;;;;1.20;1.10;;;13.00;97.30;;;;;;4937965;29;20603;-84
2023/08/11 05:07:59;;;;;;;1.30;1.20;;;13.00;97.30;;;;;;4938808;29;20973;-86
2023/08/11 05:10:25;;;;;;;1.77;1.70;;;13.10;97.30;;;;;;4937497;29;20183;-86
2023/08/11 05:12:50;;;;;;;4.87;1.43;;;13.10;97.30;;;;;;4937687;29;20662;-85
2023/08/11 05:15:16;;;;;;;3.43;1.53;;;13.10;97.30;;;;;;4953457;28;20238;-86
2023/08/11 05:17:41;;;;;;;1.50;1.40;;;13.20;97.30;;;;;;4937505;29;20192;-85
2023/08/11 05:20:09;;;;;;;1.00;0.90;;;13.20;97.30;;;;;;4929327;29;20194;-85
2023/08/11 05:22:36;;;;;;;2.50;1.80;;;13.20;97.30;;;;;;4935963;29;20200;-85
2023/08/11 05:25:04;;;;;;;1.27;1.17;;;13.30;97.30;;;;;;4933496;29;20444;-86
2023/08/11 05:27:29;;;;;;;4.60;2.00;;;13.30;97.30;;;;;;4935429;29;20455;-85
2023/08/11 05:29:55;;;;;;;2.00;1.90;;;13.40;97.30;;;;;;4937382;29;20427;-86
2023/08/11 05:32:20;;;;;;;2.40;2.07;;;13.40;97.30;;;;;;4929361;29;20342;-85
2023/08/11 05:34:46;;;;;;;1.50;1.40;;;13.50;97.30;;;;;;4936997;29;20303;-85
2023/08/11 05:37:12;;;;;;;1.77;1.20;;;13.50;97.30;;;;;;4937273;29;20274;-85
2023/08/11 05:39:41;;;;;;;3.17;2.27;;;13.60;97.30;;;;;;4937153;29;20726;-85
2023/08/11 05:42:07;;;;;;;1.10;1.00;;;13.70;97.30;;;;;;4938566;29;20467;-86
2023/08/11 05:44:33;;;;;;;4.33;1.77;;;13.70;97.30;;;;;;4936100;29;20439;-85
2023/08/11 05:46:59;;;;;;;2.20;2.03;;;13.80;97.30;;;;;;4930388;29;20478;-85
2023/08/11 05:49:25;;;;;;;3.17;1.50;;;13.90;97.30;;;;;;4950102;28;20179;-86
2023/08/11 05:51:50;;;;;;;1.30;1.20;;;14.00;97.30;;;;;;4935112;29;20447;-86
2023/08/11 05:54:16;;;;;;;1.30;1.20;;;14.10;97.30;;;;;;4934634;29;20274;-86
2023/08/11 05:56:42;;;;;;;1.97;1.87;;;14.10;97.30;;;;;;4950975;28;20636;-86
2023/08/11 05:59:07;;;;;;;1.93;1.67;;;14.20;97.30;;;;;;4945817;29;20188;-85
2023/08/11 06:01:33;;;;;;;2.07;1.93;;;14.20;97.30;;;;;;4945710;29;20188;-87
2023/08/11 06:03:59;;;;;;;1.90;1.70;;;14.30;97.30;;;;;;4947970;29;20196;-83
2023/08/11 06:06:24;;;;;;;4.37;1.70;;;14.40;97.30;;;;;;4949873;29;20610;-85
2023/08/11 06:08:50;;;;;;;1.77;1.63;;;14.50;97.30;;;;;;4963643;28;20239;-86
2023/08/11 06:11:15;;;;;;;1.53;1.43;;;14.60;97.30;;;;;;4947719;29;20200;-85
2023/08/11 06:13:42;;;;;;;2.20;2.00;;;14.60;97.30;;;;;;4946854;29;20231;-86
2023/08/11 06:16:07;;;;;;;2.13;2.00;;;14.80;97.30;;;;;;4946307;29;20184;-85
2023/08/11 06:18:33;;;;;;;8.13;2.47;;;14.80;97.30;;;;;;4955304;29;20443;-86
2023/08/11 06:21:00;;;;;;;12.53;4.00;;;14.90;97.30;;;;;;4945366;29;20219;-85
2023/08/11 06:23:26;;;;;;;2.60;2.40;;;15.00;97.30;;;;;;4940325;29;20555;-86
2023/08/11 06:25:52;;;;;;;2.50;1.80;;;15.00;97.30;;;;;;4950955;28;20424;-85
2023/08/11 06:28:18;;;;;;;1.57;1.47;;;15.10;97.30;;;;;;4938649;29;20472;-86
2023/08/11 06:30:43;;;;;;;2.67;2.53;;;15.20;97.30;;;;;;4926441;29;20191;-85
2023/08/11 06:33:09;;;;;;;2.80;1.93;;;15.30;97.30;;;;;;4950582;28;20242;-86
2023/08/11 06:35:34;;;;;;;3.67;3.53;;;15.30;97.30;;;;;;4938393;29;20184;-86
2023/08/11 06:38:00;;;;;;;1.10;1.00;;;15.40;97.30;;;;;;4936038;29;20223;-86
2023/08/11 06:40:25;;;;;;;2.40;1.27;;;15.50;97.30;;;;;;4934187;29;20208;-85
2023/08/11 06:42:51;;;;;;;1.33;1.23;;;15.60;97.30;;;;;;4943401;28;20271;-85
2023/08/11 06:45:17;;;;;;;2.40;1.40;;;15.70;97.30;;;;;;4946631;28;20347;-86
2023/08/11 06:47:42;;;;;;;1.40;1.30;;;15.80;97.30;;;;;;4943748;28;20263;-86
2023/08/11 06:50:08;;;;;;;3.73;1.80;;;15.90;97.30;;;;;;4932700;29;20271;-85
2023/08/11 06:52:34;;;;;;;1.30;1.20;;;16.00;97.30;;;;;;4935659;29;20195;-85
2023/08/11 06:54:59;;;;;;;1.80;1.47;;;16.10;97.30;;;;;;4950563;28;20439;-85
2023/08/11 06:57:25;;;;;;;3.27;2.13;;;16.20;97.30;;;;;;4934016;29;20180;-85
2023/08/11 06:59:50;;;;;;;5.90;2.33;;;16.30;97.30;;;;;;4933963;29;20563;-85
2023/08/11 07:02:16;;;;;;;1.53;1.43;;;16.40;97.30;;;;;;4933974;29;20230;-86
2023/08/11 07:04:41;;;;;;;3.07;2.60;;;16.50;97.30;;;;;;4933542;29;20571;-85
2023/08/11 07:07:07;;;;;;;5.47;1.97;;;16.60;97.30;;;;;;4935113;29;20211;-85
2023/08/11 07:09:33;;;;;;;1.50;1.40;;;16.70;97.30;;;;;;4933877;29;20537;-85
2023/08/11 07:11:59;;;;;;;6.77;3.20;;;16.80;97.30;;;;;;4941676;29;20204;-85
2023/08/11 07:14:25;;;;;;;1.07;0.97;;;16.90;97.30;;;;;;4933604;29;20596;-85
2023/08/11 07:16:51;;;;;;;2.90;2.70;;;17.00;97.30;;;;;;4933954;29;20207;-86
2023/08/11 07:19:18;;;;;;;1.90;1.80;;;17.10;97.30;;;;;;4933651;29;20192;-85
2023/08/11 07:21:43;;;;;;;1.47;1.37;;;17.20;97.30;;;;;;4949435;28;20216;-85
2023/08/11 07:24:10;;;;;;;1.40;1.40;;;17.30;97.30;;;;;;4934729;29;20446;-84
2023/08/11 07:26:35;;;;;;;1.40;1.30;;;17.40;97.30;;;;;;4934340;29;20180;-85
2023/08/11 07:29:01;;;;;;;3.70;1.80;;;17.50;97.30;;;;;;4933543;29;20789;-85
2023/08/11 07:31:26;;;;;;;1.63;1.53;;;17.60;97.30;;;;;;4933369;29;20271;-85
2023/08/11 07:33:52;;;;;;;5.80;1.23;;;17.70;97.30;;;;;;4933136;29;20226;-85
2023/08/11 07:36:17;;;;;;;1.20;1.10;;;17.90;97.30;;;;;;4949009;28;20203;-85
2023/08/11 07:38:43;;;;;;;4.23;1.87;;;18.00;97.30;;;;;;4933322;29;20196;-86
2023/08/11 07:41:08;;;;;;;3.73;1.73;;;18.10;97.30;;;;;;4941279;29;20208;-85
2023/08/11 07:43:34;;;;;;;1.17;1.07;;;18.20;97.30;;;;;;4933191;29;20753;-86
2023/08/11 07:45:59;;;;;;;2.03;1.77;;;18.30;97.30;;;;;;4949307;28;20333;-86
2023/08/11 07:48:25;;;;;;;1.40;1.30;;;18.40;97.30;;;;;;4933423;29;20222;-85
2023/08/11 07:50:51;;;;;;;1.77;1.67;;;18.50;97.30;;;;;;4948301;29;20215;-86
2023/08/11 07:53:16;;;;;;;3.70;1.47;;;18.60;97.30;;;;;;4932982;29;20207;-85
2023/08/11 07:55:42;;;;;;;2.00;1.33;;;18.70;97.30;;;;;;4933056;29;20195;-86
2023/08/11 07:58:07;;;;;;;1.30;1.20;;;18.80;96.50;;;;;;4933182;29;20195;-86
2023/08/11 08:00:33;;;;;;;1.60;1.50;;;18.90;96.40;;;;;;4924794;29;20203;-86
2023/08/11 08:02:59;;;;;;;2.20;2.00;;;19.10;95.70;;;;;;4936716;29;20218;-85
2023/08/11 08:05:24;;;;;;;1.40;1.30;;;19.20;95.00;;;;;;4939655;28;20215;-86
2023/08/11 08:07:50;;;;;;;6.57;2.07;;;19.30;94.60;;;;;;4924548;29;20180;-86
2023/08/11 08:10:15;;;;;;;1.30;1.20;;;19.40;94.50;;;;;;4932068;28;20184;-86
2023/08/11 08:12:44;;;;;;;1.90;1.80;;;19.40;94.50;;;;;;4933798;29;20180;-85
2023/08/11 08:15:10;;;;;;;1.40;1.33;;;19.60;93.40;;;;;;4932404;28;20275;-86
2023/08/11 08:17:36;;;;;;;1.57;1.47;;;19.70;93.40;;;;;;4932379;29;20427;-86
2023/08/11 08:20:10;;;;;;;1.23;1.13;;;19.80;93.20;;;;;;4933178;28;20446;-86
2023/08/11 08:22:36;;;;;;;1.43;1.33;;;19.90;92.40;;;;;;4932612;29;20431;-86
2023/08/11 08:25:06;;;;;;;1.33;1.23;;;20.00;92.10;;;;;;4948852;28;20448;-86
2023/08/11 08:27:36;;;;;;;1.23;1.13;;;20.10;91.80;;;;;;4932541;29;20427;-85
2023/08/11 08:30:02;;;;;;;1.27;1.23;;;20.20;91.80;;;;;;4940797;28;20419;-86
2023/08/11 08:32:29;;;;;;;0.90;0.80;;;20.30;91.60;;;;;;4948529;28;20486;-86
2023/08/11 08:34:55;;;;;;;4.00;1.30;;;20.40;90.90;;;;;;4932576;29;20295;-86
2023/08/11 08:37:20;;;;;;;1.10;1.00;;;20.50;90.90;;;;;;4932320;29;20595;-86
2023/08/11 08:39:49;;;;;;;1.40;1.30;;;20.60;90.30;;;;;;4939867;28;20308;-85
2023/08/11 08:42:15;;;;;;;2.10;1.30;;;20.70;90.80;;;;;;4939975;28;20705;-85
2023/08/11 08:44:42;;;;;;;0.90;0.80;;;20.80;90.50;;;;;;4931932;29;20454;-87
2023/08/11 08:47:08;;;;;;;2.80;1.20;;;20.80;89.20;;;;;;4933644;29;20180;-86
2023/08/11 08:49:37;;;;;;;1.10;1.00;;;20.90;89.60;;;;;;4948141;28;20477;-86
2023/08/11 08:52:05;;;;;;;1.10;1.00;;;21.00;89.30;;;;;;4924480;29;20434;-85
2023/08/11 08:54:31;;;;;;;2.40;1.13;;;21.10;89.30;;;;;;4933218;29;20458;-86
2023/08/11 08:56:59;;;;;;;2.60;1.10;;;21.20;88.70;;;;;;4932403;29;20482;-86
2023/08/11 08:59:25;;;;;;;0.90;0.80;;;21.30;88.00;;;;;;4932094;29;20470;-86
2023/08/11 09:01:50;;;;;;;0.90;0.80;;;21.30;87.40;;;;;;4933266;29;20499;-86
2023/08/11 09:04:18;;;;;;;0.90;0.80;;;21.50;87.90;;;;;;4932087;29;20316;-86
2023/08/11 09:06:44;;;;;;;1.23;1.10;;;21.50;87.90;;;;;;4933386;29;20184;-86
2023/08/11 09:09:10;;;;;;;1.07;0.93;;;21.60;87.60;;;;;;4932231;29;20800;-86
2023/08/11 09:11:38;;;;;;;1.00;1.00;;;21.70;86.40;;;;;;4948155;28;20634;-86
2023/08/11 09:14:07;;;;;;;1.10;1.00;;;21.70;86.20;;;;;;4931629;29;20493;-86
2023/08/11 09:16:34;;;;;;;0.90;0.80;;;21.80;86.10;;;;;;4930713;29;20431;-86
2023/08/11 09:19:00;;;;;;;0.90;0.80;;;21.80;86.50;;;;;;4931107;28;20524;-86
2023/08/11 09:21:26;;;;;;;1.00;0.90;;;21.90;86.40;;;;;;4930667;29;20562;-86
2023/08/11 09:23:52;;;;;;;0.90;0.80;;;21.90;86.70;;;;;;4931507;29;20604;-86
2023/08/11 09:26:21;;;;;;;1.20;1.10;;;21.90;86.10;;;;;;4932147;29;20191;-86
2023/08/11 09:28:46;;;;;;;1.00;0.90;;;22.00;86.80;;;;;;4931719;29;20426;-86
2023/08/11 09:31:12;;;;;;;1.57;1.30;;;22.10;86.70;;;;;;4931812;29;20424;-86
2023/08/11 09:33:38;;;;;;;1.00;0.90;;;22.20;87.00;;;;;;4931583;29;20212;-86
2023/08/11 09:36:04;;;;;;;0.90;0.80;;;22.30;87.40;;;;;;4933233;29;20187;-86
2023/08/11 09:38:30;;;;;;;1.60;1.50;;;22.40;87.40;;;;;;4931724;29;20319;-86
2023/08/11 09:41:01;;;;;;;1.17;1.07;;;22.50;87.80;;;;;;4931754;29;20542;-86
2023/08/11 09:43:26;;;;;;;1.00;0.90;;;22.60;87.50;;;;;;4947774;28;20204;-86
2023/08/11 09:45:53;;;;;;;0.90;0.80;;;22.70;87.60;;;;;;4933034;29;20764;-86
2023/08/11 09:48:18;;;;;;;1.00;0.97;;;22.80;88.00;;;;;;4931449;29;20296;-86
2023/08/11 09:50:44;;;;;;;1.23;1.13;;;22.90;88.00;;;;;;4934414;29;20518;-86
2023/08/11 09:53:11;;;;;;;0.90;0.80;;;22.90;87.40;;;;;;4936579;29;20188;-87
2023/08/11 09:55:40;;;;;;;1.30;1.00;;;22.90;87.10;;;;;;4935121;29;20432;-87
2023/08/11 09:58:08;;;;;;;1.17;1.10;;;23.00;86.70;;;;;;4935108;29;20420;-86
2023/08/11 10:00:34;;;;;;;1.20;1.10;;;23.00;86.10;;;;;;4934952;29;21051;-86
2023/08/11 10:03:05;;;;;;;1.10;0.87;;;23.10;85.70;;;;;;4934897;29;20490;-86
2023/08/11 10:05:36;;;;;;;1.13;1.03;;;23.10;85.70;;;;;;4936063;29;20208;-86
2023/08/11 10:08:05;;;;;;;0.90;0.80;;;23.10;85.60;;;;;;4934694;29;20416;-86
2023/08/11 10:10:31;;;;;;;1.10;1.00;;;23.10;86.00;;;;;;4935240;29;20420;-85
2023/08/11 10:13:07;;;;;;;0.90;0.80;;;23.20;86.20;;;;;;4934381;29;20507;-87
2023/08/11 10:15:33;;;;;;;2.00;0.80;;;23.20;86.00;;;;;;4974914;23;20895;-86
2023/08/11 10:18:01;;;;;;;0.90;0.80;;;23.30;86.20;;;;;;4934582;29;20862;-86
2023/08/11 10:20:26;;;;;;;0.90;0.80;;;23.40;84.90;;;;;;4935860;29;20412;-86
2023/08/11 10:22:52;;;;;;;1.00;0.90;;;23.50;84.90;;;;;;4934672;29;20439;-87
2023/08/11 10:25:18;;;;;;;0.97;0.87;;;23.50;84.40;;;;;;4934832;28;20745;-87
2023/08/11 10:27:45;;;;;;;1.00;0.90;;;23.70;86.10;;;;;;4934500;28;20188;-87
2023/08/11 10:30:14;;;;;;;1.13;1.03;;;23.80;85.50;;;;;;4927256;29;20428;-87
2023/08/11 10:32:40;;;;;;;1.23;0.90;;;23.90;85.30;;;;;;4934844;29;20460;-87
2023/08/11 10:35:19;;;;;;;1.00;0.90;;;23.90;84.70;;;;;;4934768;29;20506;-86
2023/08/11 10:37:59;;;;;;;0.93;0.83;;;24.00;85.10;;;;;;4934602;29;20192;-86
2023/08/11 10:40:39;;;;;;;2.17;1.00;;;24.10;84.10;;;;;;4941680;29;20440;-87
2023/08/11 10:43:05;;;;;;;0.90;0.83;;;24.10;84.40;;;;;;4942128;28;20438;-87
2023/08/11 10:45:33;;;;;;;0.90;0.80;;;24.10;84.30;;;;;;4933282;29;20436;-86
2023/08/11 10:47:59;;;;;;;1.27;1.23;;;24.10;82.90;;;;;;4934355;29;20470;-86
2023/08/11 10:50:26;;;;;;;1.00;0.90;;;24.10;83.40;;;;;;4934510;29;20430;-86
2023/08/11 10:53:06;;;;;;;1.00;0.90;;;24.20;83.30;;;;;;4934251;29;20428;-87
2023/08/11 10:55:36;;;;;;;0.70;0.70;;;24.30;83.80;;;;;;4934175;29;20447;-86
2023/08/11 10:58:17;;;;;;;0.80;0.70;;;24.40;82.70;;;;;;4933818;29;20437;-86
2023/08/11 11:00:43;;;;;;;0.90;0.80;;;24.40;82.90;;;;;;4933492;29;20463;-86
2023/08/11 11:03:11;;;;;;;1.00;0.90;;;24.50;82.80;;;;;;4933623;29;20481;-86
2023/08/11 11:05:37;;;;;;;1.03;0.93;;;24.60;82.80;;;;;;4934350;29;20455;-86
2023/08/11 11:08:03;;;;;;;1.57;1.07;;;24.70;83.20;;;;;;4934025;29;20419;-86
2023/08/11 11:10:28;;;;;;;0.90;0.80;;;24.80;81.60;;;;;;4933950;29;20555;-87
2023/08/11 11:12:55;;;;;;;1.17;1.00;;;24.80;82.00;;;;;;4933620;28;20192;-87
2023/08/11 11:15:21;;;;;;;0.77;0.70;;;24.80;82.80;;;;;;4933694;29;20246;-87
2023/08/11 11:17:47;;;;;;;0.90;0.80;;;24.90;83.20;;;;;;4933850;29;20572;-88
2023/08/11 11:20:13;;;;;;;0.80;0.70;;;24.90;83.00;;;;;;4934431;29;20416;-86
2023/08/11 11:22:46;;;;;;;1.00;1.00;;;25.00;83.40;;;;;;4933777;28;20466;-87
2023/08/11 11:25:12;;;;;;;0.90;0.80;;;25.00;83.80;;;;;;4933378;28;20455;-86
2023/08/11 11:27:42;;;;;;;0.90;0.87;;;25.10;83.60;;;;;;4933421;29;20491;-87
2023/08/11 11:30:09;;;;;;;0.80;0.80;;;25.20;82.60;;;;;;4933605;29;20487;-86
2023/08/11 11:32:35;;;;;;;0.80;0.70;;;25.30;82.20;;;;;;4933566;28;20452;-86
2023/08/11 11:35:00;;;;;;;0.90;0.80;;;25.40;81.60;;;;;;4933100;28;20475;-86
2023/08/11 11:37:26;;;;;;;0.90;0.80;;;25.40;80.30;;;;;;4933576;29;20557;-86
2023/08/11 11:39:54;;;;;;;1.57;1.20;;;25.40;81.20;;;;;;4933427;29;20231;-86
2023/08/11 11:42:19;;;;;;;1.43;1.10;;;25.40;80.80;;;;;;4933233;29;20204;-87
2023/08/11 11:44:45;;;;;;;1.00;1.00;;;25.40;81.00;;;;;;4933166;29;20452;-86
2023/08/11 11:47:11;;;;;;;3.50;1.33;;;25.50;82.60;;;;;;4933211;29;20279;-87
2023/08/11 11:49:37;;;;;;;3.57;1.10;;;25.60;82.90;;;;;;4934219;29;20646;-86
2023/08/11 11:52:04;;;;;;;1.03;0.93;;;25.70;82.80;;;;;;4933316;28;20510;-87
2023/08/11 11:54:30;;;;;;;0.90;0.80;;;25.90;81.70;;;;;;4934241;29;20231;-86
2023/08/11 11:56:59;;;;;;;1.00;0.80;;;26.00;80.80;;;;;;4933034;28;20867;-87
2023/08/11 11:59:28;;;;;;;0.93;0.90;;;26.10;80.40;;;;;;4932830;29;20961;-85
2023/08/11 12:02:00;;;;;;;1.10;1.00;;;26.20;82.20;;;;;;4933849;29;20459;-87
2023/08/11 12:04:25;;;;;;;0.97;0.93;;;26.20;80.10;;;;;;4935944;29;20461;-87
2023/08/11 12:06:51;;;;;;;0.90;0.80;;;26.30;81.20;;;;;;4934516;29;20503;-87
2023/08/11 12:09:17;;;;;;;1.00;0.90;;;26.40;80.20;;;;;;4933737;29;20219;-87
2023/08/11 12:11:42;;;;;;;0.70;0.70;;;26.50;78.90;;;;;;4931994;29;20267;-87
2023/08/11 12:14:11;;;;;;;1.13;1.03;;;26.60;81.10;;;;;;4932466;28;20232;-87
2023/08/11 12:16:36;;;;;;;0.93;0.90;;;26.70;79.80;;;;;;4932940;29;20188;-86
2023/08/11 12:19:03;;;;;;;1.20;0.90;;;26.80;81.20;;;;;;4932558;29;20431;-86
2023/08/11 12:21:29;;;;;;;1.00;0.90;;;26.90;82.00;;;;;;4932496;29;20289;-86
2023/08/11 12:23:55;;;;;;;1.10;1.00;;;27.00;81.00;;;;;;4932456;29;20981;-86
2023/08/11 12:26:20;;;;;;;1.00;1.00;;;27.10;80.40;;;;;;4932890;29;20191;-86
2023/08/11 12:28:46;;;;;;;2.13;1.20;;;27.10;78.70;;;;;;4933088;29;20412;-86
2023/08/11 12:31:12;;;;;;;1.83;0.90;;;27.10;78.70;;;;;;4932312;29;20734;-87
2023/08/11 12:33:38;;;;;;;1.00;0.90;;;27.10;79.80;;;;;;4932434;29;20180;-87
2023/08/11 12:36:04;;;;;;;0.80;0.70;;;27.10;79.20;;;;;;4932242;29;20278;-87
2023/08/11 12:38:30;;;;;;;1.20;1.13;;;27.30;80.30;;;;;;4932396;29;20522;-87
2023/08/11 12:40:57;;;;;;;1.30;1.20;;;27.40;79.40;;;;;;4932074;29;20196;-87
2023/08/11 12:43:23;;;;;;;0.90;0.80;;;27.50;78.60;;;;;;4930540;29;20880;-86
2023/08/11 12:45:48;;;;;;;2.60;1.17;;;27.50;76.90;;;;;;4930756;29;20443;-87
2023/08/11 12:48:14;;;;;;;1.00;0.80;;;27.50;77.40;;;;;;4932393;29;20548;-86
2023/08/11 12:50:40;;;;;;;2.93;1.33;;;27.60;77.70;;;;;;4931347;29;20637;-86
2023/08/11 12:53:06;;;;;;;0.80;0.70;;;27.60;78.10;;;;;;4932246;29;20793;-87
2023/08/11 12:55:33;;;;;;;0.97;0.90;;;27.60;78.10;;;;;;4932164;29;20214;-87
2023/08/11 12:58:01;;;;;;;0.80;0.80;;;27.70;79.40;;;;;;4932243;29;20459;-87
2023/08/11 13:00:27;;;;;;;1.00;0.90;;;27.80;79.10;;;;;;4932125;28;20843;-86
2023/08/11 13:02:53;;;;;;;3.43;1.13;;;28.00;78.50;;;;;;4932087;29;20430;-87
2023/08/11 13:05:18;;;;;;;1.03;0.80;;;28.10;80.10;;;;;;4931729;29;20888;-86
2023/08/11 13:07:44;;;;;;;0.80;0.70;;;28.20;79.30;;;;;;4933209;29;20179;-87
2023/08/11 13:10:13;;;;;;;1.60;1.50;;;28.20;77.30;;;;;;4931801;28;20561;-86
2023/08/11 13:12:41;;;;;;;0.80;0.80;;;28.30;80.70;;;;;;4933250;29;20183;-87
2023/08/11 13:15:07;;;;;;;1.00;0.90;;;28.40;78.00;;;;;;4931695;29;20482;-87
2023/08/11 13:17:33;;;;;;;0.90;0.80;;;28.50;77.00;;;;;;4932140;28;20519;-86
2023/08/11 13:20:03;;;;;;;0.70;0.70;;;28.60;77.30;;;;;;4933156;29;20512;-87
2023/08/11 13:22:28;;;;;;;1.10;0.93;;;28.80;77.40;;;;;;4930824;29;20222;-87
2023/08/11 13:24:54;;;;;;;0.90;0.80;;;28.80;76.50;;;;;;4933346;28;20538;-87
2023/08/11 13:27:19;;;;;;;8.13;1.20;;;28.90;76.50;;;;;;4935738;29;20219;-87
2023/08/11 13:29:45;;;;;;;0.87;0.77;;;28.90;76.20;;;;;;4942639;29;20187;-87
2023/08/11 13:32:10;;;;;;;0.90;0.80;;;28.90;76.20;;;;;;4934780;28;20196;-87
2023/08/11 13:34:36;;;;;;;0.87;0.77;;;28.90;75.00;;;;;;4936330;29;20258;-87
2023/08/11 13:37:01;;;;;;;0.80;0.70;;;28.90;75.00;;;;;;4919083;29;20207;-86
2023/08/11 13:39:27;;;;;;;0.70;0.70;;;28.90;74.50;;;;;;4936581;29;20184;-86
2023/08/11 13:41:53;;;;;;;0.80;0.70;;;29.00;75.30;;;;;;4935356;29;20203;-86
2023/08/11 13:44:20;;;;;;;0.90;0.80;;;29.00;74.80;;;;;;4935365;29;20243;-86
2023/08/11 13:46:46;;;;;;;0.90;0.90;;;29.00;74.80;;;;;;4935251;29;20424;-87
2023/08/11 13:49:11;;;;;;;1.57;0.80;;;29.10;74.70;;;;;;4935290;28;20556;-86
2023/08/11 13:51:37;;;;;;;1.90;1.03;;;29.20;75.10;;;;;;4935122;29;20564;-86
2023/08/11 13:54:03;;;;;;;0.80;0.70;;;29.30;74.70;;;;;;4935241;29;20462;-85
2023/08/11 13:56:29;;;;;;;1.00;0.90;;;29.30;73.90;;;;;;4936531;28;20535;-86
2023/08/11 13:58:55;;;;;;;0.80;0.70;;;29.40;73.80;;;;;;4935555;28;20443;-86
2023/08/11 14:01:21;;;;;;;0.90;0.80;;;29.40;74.00;;;;;;4934833;29;20471;-87
2023/08/11 14:03:46;;;;;;;0.90;0.80;;;29.40;75.10;;;;;;4936986;29;20546;-86
2023/08/11 14:06:12;;;;;;;0.87;0.77;;;29.50;73.80;;;;;;4940871;29;20428;-87
2023/08/11 14:08:38;;;;;;;1.63;1.47;;;29.60;74.30;;;;;;4931828;29;20183;-87
2023/08/11 14:11:03;;;;;;;1.20;1.10;;;29.70;73.60;;;;;;4936494;28;20207;-86
2023/08/11 14:13:29;;;;;;;0.90;0.80;;;29.70;73.00;;;;;;4931890;29;20184;-88
2023/08/11 14:15:56;;;;;;;0.80;0.70;;;29.80;72.60;;;;;;4925422;29;20231;-87
2023/08/11 14:18:22;;;;;;;1.17;1.03;;;29.90;74.30;;;;;;4936458;29;20669;-87
2023/08/11 14:20:47;;;;;;;0.70;0.70;;;30.00;74.30;;;;;;4936942;29;20541;-87
2023/08/11 14:23:13;;;;;;;0.83;0.73;;;30.00;73.30;;;;;;4933848;29;20691;-88
2023/08/11 14:25:40;;;;;;;2.37;0.90;;;30.10;75.40;;;;;;4935579;29;20212;-88
2023/08/11 14:28:05;;;;;;;0.90;0.80;;;30.10;73.00;;;;;;4935480;29;20180;-88
2023/08/11 14:30:31;;;;;;;0.83;0.73;;;30.20;74.60;;;;;;4934001;28;20938;-87
2023/08/11 14:32:56;;;;;;;0.80;0.80;;;30.30;72.80;;;;;;4935581;29;20187;-88
2023/08/11 14:35:22;;;;;;;3.60;1.07;;;30.30;74.10;;;;;;4933522;29;20482;-88
2023/08/11 14:37:47;;;;;;;2.20;0.80;;;30.40;74.50;;;;;;4933512;29;20180;-88
2023/08/11 14:40:13;;;;;;;0.90;0.80;;;30.50;74.60;;;;;;4934204;28;20663;-87
2023/08/11 14:42:39;;;;;;;1.03;0.97;;;30.60;74.20;;;;;;4932875;29;20203;-87
2023/08/11 14:45:05;;;;;;;1.80;1.00;;;30.60;72.50;;;;;;4941654;28;20725;-88
2023/08/11 14:47:31;;;;;;;1.00;0.90;;;30.60;70.90;;;;;;4933165;29;20643;-87
2023/08/11 14:49:56;;;;;;;0.80;0.70;;;30.60;72.00;;;;;;4932606;29;20559;-88
2023/08/11 14:52:22;;;;;;;1.33;1.00;;;30.60;71.70;;;;;;4933612;29;20187;-88
2023/08/11 14:54:47;;;;;;;1.17;1.10;;;30.60;71.80;;;;;;4933930;29;20702;-87
2023/08/11 14:57:15;;;;;;;0.90;0.80;;;30.70;71.20;;;;;;4933599;29;20186;-88
2023/08/11 14:59:40;;;;;;;1.00;0.90;;;30.70;70.10;;;;;;4934554;29;20192;-86
2023/08/11 15:02:06;;;;;;;1.00;0.90;;;30.80;71.00;;;;;;4934318;29;20462;-87
2023/08/11 15:04:31;;;;;;;1.07;0.97;;;30.70;70.90;;;;;;4933609;29;20298;-87
2023/08/11 15:06:57;;;;;;;1.40;1.13;;;30.60;72.70;;;;;;4933962;29;20180;-87
2023/08/11 15:09:23;;;;;;;1.23;0.80;;;30.60;72.20;;;;;;4934780;29;20184;-86
2023/08/11 15:11:49;;;;;;;2.30;1.13;;;30.70;72.70;;;;;;4935145;29;20184;-86
2023/08/11 15:14:15;;;;;;;0.73;0.70;;;30.80;72.90;;;;;;4934216;29;20604;-86
2023/08/11 15:16:41;;;;;;;0.80;0.70;;;30.80;71.60;;;;;;4933868;29;20423;-86
2023/08/11 15:19:06;;;;;;;1.43;1.10;;;30.90;71.60;;;;;;4934624;29;20422;-88
2023/08/11 15:21:32;;;;;;;0.90;0.80;;;31.00;70.80;;;;;;4933365;28;20211;-87
2023/08/11 15:23:57;;;;;;;1.10;1.03;;;31.00;70.50;;;;;;4933403;29;20192;-88
2023/08/11 15:26:24;;;;;;;0.90;0.80;;;31.10;71.10;;;;;;4933498;29;20271;-88
2023/08/11 15:28:49;;;;;;;1.43;0.80;;;31.20;71.20;;;;;;4933493;28;20168;-88
2023/08/11 15:31:15;;;;;;;1.43;1.17;;;31.20;71.40;;;;;;4933381;28;20796;-87
2023/08/11 15:33:41;;;;;;;0.83;0.73;;;31.20;71.50;;;;;;4933272;29;20183;-87
2023/08/11 15:36:06;;;;;;;1.83;0.90;;;31.30;71.70;;;;;;4933223;29;20424;-87
2023/08/11 15:38:32;;;;;;;1.00;0.90;;;31.40;71.90;;;;;;4933069;28;20172;-88
2023/08/11 15:41:01;;;;;;;1.00;0.90;;;31.40;72.30;;;;;;4933519;29;20200;-88
2023/08/11 15:43:26;;;;;;;1.10;1.00;;;31.40;71.80;;;;;;4934086;29;20183;-88
2023/08/11 15:45:52;;;;;;;0.83;0.73;;;31.40;72.00;;;;;;4933204;29;20634;-87
2023/08/11 15:48:17;;;;;;;1.23;1.13;;;31.40;71.40;;;;;;4932648;28;20184;-87
2023/08/11 15:50:43;;;;;;;3.13;1.87;;;31.40;70.80;;;;;;4933169;29;20461;-86
2023/08/11 15:53:08;;;;;;;0.90;0.80;;;31.30;70.80;;;;;;4932948;29;20207;-87
2023/08/11 15:55:33;;;;;;;0.90;0.80;;;31.40;71.90;;;;;;4932995;29;20227;-87
2023/08/11 15:57:59;;;;;;;0.90;0.80;;;31.40;70.90;;;;;;4932646;29;20199;-87
2023/08/11 16:00:24;;;;;;;1.00;0.90;;;31.40;70.50;;;;;;4932679;29;20184;-87
2023/08/11 16:02:50;;;;;;;0.87;0.77;;;31.40;70.60;;;;;;4932188;29;20812;-87
2023/08/11 16:05:16;;;;;;;1.67;1.57;;;31.30;70.80;;;;;;4933386;29;20287;-87
2023/08/11 16:07:41;;;;;;;1.17;0.87;;;31.30;69.90;;;;;;4932034;29;20244;-87
2023/08/11 16:10:07;;;;;;;1.60;1.50;;;31.30;70.30;;;;;;4933298;29;20210;-87
2023/08/11 16:12:33;;;;;;;0.77;0.73;;;31.40;70.90;;;;;;4933619;29;20187;-88
2023/08/11 16:14:58;;;;;;;1.10;1.00;;;31.40;70.50;;;;;;4953573;23;20488;-66
2023/08/11 16:17:24;;;;;;;6.87;1.20;;;31.40;70.50;;;;;;4930349;29;20188;-66
2023/08/11 16:19:50;;;;;;;2.00;0.80;;;31.40;70.80;;;;;;4930632;29;20267;-67
2023/08/11 16:22:16;;;;;;;1.17;1.00;;;31.40;71.40;;;;;;4931324;29;20227;-67
2023/08/11 16:24:41;;;;;;;1.07;1.03;;;31.40;70.50;;;;;;4931858;29;20175;-67
2023/08/11 16:27:08;;;;;;;1.20;1.00;;;31.40;71.30;;;;;;4931606;29;20416;-66
2023/08/11 16:29:38;;;;;;;1.17;1.10;;;31.40;71.50;;;;;;4930075;29;20664;-67
2023/08/11 16:32:04;;;;;;;0.90;0.80;;;31.40;72.10;;;;;;4929392;29;20505;-67
2023/08/11 16:34:29;;;;;;;1.43;1.00;;;31.30;71.90;;;;;;4932317;29;20837;-67
2023/08/11 16:36:55;;;;;;;0.90;0.80;;;31.30;71.70;;;;;;4923895;29;20946;-68
2023/08/11 16:39:20;;;;;;;1.07;0.97;;;31.30;72.20;;;;;;4928835;29;20187;-67
2023/08/11 16:41:46;;;;;;;0.90;0.80;;;31.20;70.10;;;;;;4931033;29;20203;-67
2023/08/11 16:44:12;;;;;;;0.77;0.77;;;31.10;71.30;;;;;;4931112;29;20776;-67